createdAt,value
2018-01-17T00:02:12.904Z,3.10
2018-01-17T00:04:39.428Z,3.00
2018-01-17T00:07:06.931Z,3.10
2018-01-17T00:09:33.591Z,3.10
2018-01-17T00:12:00.040Z,3.10
2018-01-17T00:14:26.505Z,3.00
2018-01-17T00:16:53.825Z,2.90
2018-01-17T00:19:21.317Z,2.90
2018-01-17T00:21:48.358Z,2.90
2018-01-17T00:24:16.140Z,2.80
2018-01-17T00:26:42.827Z,2.70
2018-01-17T00:29:09.939Z,2.90
2018-01-17T00:31:36.362Z,2.80
2018-01-17T00:34:03.439Z,2.70
2018-01-17T00:36:29.925Z,2.80
2018-01-17T00:38:56.366Z,2.80
2018-01-17T00:41:23.517Z,2.80
2018-01-17T00:43:50.770Z,2.90
2018-01-17T00:46:18.217Z,2.90
2018-01-17T00:48:44.647Z,2.80
2018-01-17T00:51:11.133Z,2.80
2018-01-17T00:53:38.344Z,3.10
2018-01-17T00:56:05.327Z,3.10
2018-01-17T00:58:32.558Z,3.10
2018-01-17T01:00:59.730Z,3.10
2018-01-17T01:03:26.163Z,3.10
2018-01-17T01:05:52.563Z,3.10
2018-01-17T01:08:19.099Z,3.00
2018-01-17T01:10:46.271Z,2.80
2018-01-17T01:13:13.403Z,2.80
2018-01-17T01:15:39.848Z,2.80
2018-01-17T01:18:06.689Z,3.00
2018-01-17T01:20:33.896Z,2.90
2018-01-17T01:23:00.319Z,2.90
2018-01-17T01:25:26.814Z,2.90
2018-01-17T01:27:53.215Z,2.90
2018-01-17T01:30:19.668Z,3.00
2018-01-17T01:32:46.140Z,3.10
2018-01-17T01:35:12.636Z,3.60
2018-01-17T01:37:39.132Z,3.00
2018-01-17T01:40:06.319Z,3.20
2018-01-17T01:42:32.874Z,2.90
2018-01-17T01:45:00.136Z,2.80
2018-01-17T01:47:26.600Z,2.80
2018-01-17T01:49:53.925Z,2.90
2018-01-17T01:52:20.387Z,2.90
2018-01-17T01:54:46.909Z,3.00
2018-01-17T01:57:13.400Z,3.00
2018-01-17T01:59:40.657Z,3.00
2018-01-17T02:02:08.312Z,2.80
2018-01-17T02:04:34.848Z,2.70
2018-01-17T02:07:01.330Z,2.40
2018-01-17T02:09:27.867Z,2.20
2018-01-17T02:11:54.334Z,2.10
2018-01-17T02:14:21.597Z,1.70
2018-01-17T02:16:48.401Z,1.70
2018-01-17T02:19:14.839Z,1.60
2018-01-17T02:21:41.339Z,1.60
2018-01-17T02:24:08.389Z,1.70
2018-01-17T02:26:35.639Z,1.90
2018-01-17T02:29:03.173Z,1.90
2018-01-17T02:31:29.609Z,1.90
2018-01-17T02:33:56.802Z,2.00
2018-01-17T02:36:23.330Z,2.00
2018-01-17T02:38:50.514Z,2.00
2018-01-17T02:41:16.983Z,2.00
2018-01-17T02:43:43.405Z,1.90
2018-01-17T02:46:10.533Z,2.00
2018-01-17T02:48:37.062Z,1.80
2018-01-17T02:51:04.138Z,1.70
2018-01-17T02:53:30.606Z,1.50
2018-01-17T02:55:57.074Z,1.30
2018-01-17T02:58:23.526Z,1.20
2018-01-17T03:00:49.957Z,1.10
2018-01-17T03:03:16.681Z,1.00
2018-01-17T03:05:43.114Z,0.90
2018-01-17T03:08:09.872Z,0.90
2018-01-17T03:10:36.361Z,1.00
2018-01-17T03:13:03.166Z,1.00
2018-01-17T03:15:29.671Z,1.00
2018-01-17T03:17:56.160Z,0.90
2018-01-17T03:20:22.614Z,0.90
2018-01-17T03:22:49.123Z,0.90
2018-01-17T03:25:15.530Z,0.80
2018-01-17T03:27:42.007Z,0.80
2018-01-17T03:30:09.105Z,0.90
2018-01-17T03:32:35.568Z,0.90
2018-01-17T03:35:02.310Z,1.00
2018-01-17T03:37:28.952Z,1.00
2018-01-17T03:39:55.414Z,1.10
2018-01-17T03:42:29.702Z,1.20
2018-01-17T03:44:56.209Z,1.20
2018-01-17T03:47:22.670Z,1.30
2018-01-17T03:49:49.202Z,1.20
2018-01-17T03:52:15.655Z,1.20
2018-01-17T03:54:42.907Z,1.20
2018-01-17T03:57:10.141Z,1.10
2018-01-17T03:59:37.566Z,1.30
2018-01-17T04:02:04.562Z,1.20
2018-01-17T04:04:31.115Z,1.20
2018-01-17T04:06:57.572Z,1.20
2018-01-17T04:09:24.026Z,1.20
2018-01-17T04:11:50.563Z,1.10
2018-01-17T04:14:16.974Z,1.20
2018-01-17T04:16:44.270Z,1.20
2018-01-17T04:19:11.655Z,1.20
2018-01-17T04:21:38.921Z,1.20
2018-01-17T04:24:06.661Z,1.20
2018-01-17T04:26:33.236Z,1.20
2018-01-17T04:28:59.716Z,1.20
2018-01-17T04:31:26.880Z,1.00
2018-01-17T04:33:53.446Z,1.00
2018-01-17T04:36:19.916Z,0.90
2018-01-17T04:38:46.401Z,0.80
2018-01-17T04:41:13.619Z,0.60
2018-01-17T04:43:41.582Z,0.50
2018-01-17T04:46:08.972Z,0.50
2018-01-17T04:48:36.390Z,0.50
2018-01-17T04:51:03.191Z,0.40
2018-01-17T04:53:29.766Z,0.40
2018-01-17T04:55:56.942Z,0.30
2018-01-17T04:58:24.124Z,0.20
2018-01-17T05:00:50.773Z,0.20
2018-01-17T05:03:17.275Z,0.20
2018-01-17T05:05:44.128Z,0.30
2018-01-17T05:08:11.279Z,0.30
2018-01-17T05:10:38.812Z,0.40
2018-01-17T05:13:06.109Z,0.40
2018-01-17T05:15:33.424Z,0.40
2018-01-17T05:18:00.813Z,0.40
2018-01-17T05:20:27.645Z,0.40
2018-01-17T05:22:54.132Z,0.40
2018-01-17T05:25:20.719Z,0.50
2018-01-17T05:27:47.887Z,0.50
2018-01-17T05:30:15.331Z,0.50
2018-01-17T05:32:42.436Z,0.50
2018-01-17T05:35:10.264Z,0.60
2018-01-17T05:37:36.758Z,0.50
2018-01-17T05:40:03.582Z,0.90
2018-01-17T05:42:30.227Z,0.60
2018-01-17T05:44:57.407Z,0.60
2018-01-17T05:47:23.845Z,0.60
2018-01-17T05:49:50.358Z,0.60
2018-01-17T05:52:16.868Z,0.70
2018-01-17T05:54:43.423Z,0.70
2018-01-17T05:57:10.745Z,0.60
2018-01-17T05:59:37.341Z,0.60
2018-01-17T06:02:04.494Z,0.60
2018-01-17T06:04:30.993Z,0.50
2018-01-17T06:06:58.249Z,0.40
2018-01-17T06:09:24.718Z,0.30
2018-01-17T06:11:51.258Z,0.30
2018-01-17T06:14:18.486Z,0.20
2018-01-17T06:16:44.961Z,0.20
2018-01-17T06:19:12.108Z,0.20
2018-01-17T06:21:39.832Z,0.20
2018-01-17T06:24:07.553Z,0.10
2018-01-17T06:26:34.867Z,0.20
2018-01-17T06:29:01.439Z,0.20
2018-01-17T06:31:27.918Z,0.30
2018-01-17T06:33:54.392Z,0.20
2018-01-17T06:36:20.914Z,0.30
2018-01-17T06:38:47.426Z,0.40
2018-01-17T06:41:13.907Z,0.50
2018-01-17T06:43:41.410Z,0.60
2018-01-17T06:46:08.614Z,0.90
2018-01-17T06:48:35.164Z,0.60
2018-01-17T06:51:02.115Z,0.70
2018-01-17T06:53:28.578Z,0.80
2018-01-17T06:55:54.999Z,0.80
2018-01-17T06:58:21.542Z,0.80
2018-01-17T07:00:47.952Z,0.70
2018-01-17T07:03:14.638Z,0.70
2018-01-17T07:05:41.119Z,0.70
2018-01-17T07:08:08.246Z,0.80
2018-01-17T07:10:34.658Z,0.80
2018-01-17T07:13:01.139Z,1.10
2018-01-17T07:15:27.686Z,0.80
2018-01-17T07:17:54.127Z,0.80
2018-01-17T07:20:20.774Z,0.70
2018-01-17T07:22:48.023Z,0.70
2018-01-17T07:25:15.269Z,0.60
2018-01-17T07:27:41.823Z,0.60
2018-01-17T07:30:08.894Z,0.50
2018-01-17T07:32:35.306Z,0.50
2018-01-17T07:35:01.968Z,0.50
2018-01-17T07:37:28.455Z,0.50
2018-01-17T07:39:54.955Z,0.40
2018-01-17T07:42:21.499Z,0.40
2018-01-17T07:44:47.954Z,0.40
2018-01-17T07:47:14.497Z,0.40
2018-01-17T07:49:42.188Z,0.40
2018-01-17T07:52:10.590Z,0.50
2018-01-17T07:54:38.242Z,0.50
2018-01-17T07:57:05.517Z,0.50
2018-01-17T07:59:34.318Z,0.60
2018-01-17T08:02:00.919Z,0.90
2018-01-17T08:04:28.466Z,0.60
2018-01-17T08:06:57.397Z,0.60
2018-01-17T08:09:25.456Z,0.50
2018-01-17T08:11:52.915Z,0.50
2018-01-17T08:14:20.808Z,0.50
2018-01-17T08:16:48.190Z,0.60
2018-01-17T08:19:14.662Z,0.50
2018-01-17T08:21:41.763Z,0.60
2018-01-17T08:24:10.406Z,0.70
2018-01-17T08:26:38.157Z,0.80
2018-01-17T08:29:06.166Z,0.80
2018-01-17T08:31:32.771Z,0.70
2018-01-17T08:33:59.730Z,0.70
2018-01-17T08:36:28.053Z,0.80
2018-01-17T08:38:56.136Z,0.70
2018-01-17T08:41:22.731Z,0.70
2018-01-17T08:43:50.301Z,0.60
2018-01-17T08:46:18.320Z,0.80
2018-01-17T08:48:44.967Z,0.80
2018-01-17T08:51:11.592Z,0.80
2018-01-17T08:53:39.319Z,0.90
2018-01-17T08:56:07.067Z,0.90
2018-01-17T08:58:35.122Z,1.00
2018-01-17T09:01:03.456Z,1.10
2018-01-17T09:03:30.980Z,1.10
2018-01-17T09:05:57.740Z,1.20
2018-01-17T09:08:26.031Z,1.30
2018-01-17T09:10:53.162Z,1.40
2018-01-17T09:13:20.111Z,1.40
2018-01-17T09:15:47.689Z,1.50
2018-01-17T09:18:15.326Z,1.60
2018-01-17T09:20:42.782Z,1.60
2018-01-17T09:23:12.775Z,1.60
2018-01-17T09:25:41.041Z,1.50
2018-01-17T09:28:11.027Z,1.50
2018-01-17T09:30:38.162Z,1.40
2018-01-17T09:33:13.088Z,1.40
2018-01-17T09:35:39.978Z,1.40
2018-01-17T09:38:07.407Z,1.60
2018-01-17T09:40:36.534Z,1.70
2018-01-17T09:43:07.603Z,1.70
2018-01-17T09:45:35.891Z,1.60
2018-01-17T09:48:03.005Z,1.60
2018-01-17T09:50:30.703Z,1.70
2018-01-17T09:52:58.926Z,1.80
2018-01-17T09:55:25.624Z,1.80
2018-01-17T09:57:52.304Z,1.90
2018-01-17T10:00:20.052Z,2.10
2018-01-17T10:02:46.623Z,2.10
2018-01-17T10:05:13.232Z,2.20
2018-01-17T10:07:39.746Z,2.20
2018-01-17T10:10:08.325Z,2.20
2018-01-17T10:12:35.598Z,2.10
2018-01-17T10:15:03.262Z,2.20
2018-01-17T10:17:30.600Z,2.20
2018-01-17T10:20:00.180Z,2.10
2018-01-17T10:22:27.693Z,2.10
2018-01-17T10:24:54.380Z,2.10
2018-01-17T10:27:20.914Z,2.20
2018-01-17T10:29:47.885Z,2.30
2018-01-17T10:32:14.604Z,2.30
2018-01-17T10:34:41.225Z,2.30
2018-01-17T10:37:08.428Z,2.90
2018-01-17T10:39:35.639Z,2.60
2018-01-17T10:42:02.267Z,2.60
2018-01-17T10:44:28.756Z,2.70
2018-01-17T10:46:56.719Z,2.60
2018-01-17T10:49:24.206Z,2.60
2018-01-17T10:51:51.569Z,2.50
2018-01-17T10:54:18.358Z,2.50
2018-01-17T10:56:47.003Z,2.50
2018-01-17T10:59:14.272Z,2.40
2018-01-17T11:01:42.616Z,2.40
2018-01-17T11:04:09.534Z,2.30
2018-01-17T11:06:37.409Z,2.60
2018-01-17T11:09:05.292Z,2.50
2018-01-17T11:11:33.085Z,2.60
2018-01-17T11:13:59.791Z,2.60
2018-01-17T11:16:26.340Z,2.60
2018-01-17T11:18:53.211Z,2.70
2018-01-17T11:21:20.124Z,2.90
2018-01-17T11:23:46.977Z,2.90
2018-01-17T11:26:14.304Z,2.80
2018-01-17T11:28:41.673Z,2.80
2018-01-17T11:31:09.488Z,2.80
2018-01-17T11:33:36.087Z,2.70
2018-01-17T11:36:03.248Z,2.50
2018-01-17T11:38:29.800Z,2.50
2018-01-17T11:40:56.393Z,2.50
2018-01-17T11:43:22.862Z,2.40
2018-01-17T11:45:49.313Z,2.40
2018-01-17T11:48:17.091Z,2.20
2018-01-17T11:50:45.125Z,2.20
2018-01-17T11:53:11.711Z,2.20
2018-01-17T11:55:38.971Z,2.40
2018-01-17T11:58:06.630Z,2.40
2018-01-17T12:00:33.256Z,2.50
2018-01-17T12:02:59.828Z,2.60
2018-01-17T12:05:26.372Z,2.60
2018-01-17T12:07:52.989Z,2.70
2018-01-17T12:10:19.678Z,3.00
2018-01-17T12:12:46.430Z,3.20
2018-01-17T12:15:13.134Z,3.20
2018-01-17T12:17:39.741Z,3.10
2018-01-17T12:20:06.613Z,3.00
2018-01-17T12:22:33.556Z,2.90
2018-01-17T12:25:00.248Z,2.90
2018-01-17T12:27:27.728Z,3.00
2018-01-17T12:29:54.410Z,3.00
2018-01-17T12:32:20.992Z,3.20
2018-01-17T12:34:47.442Z,3.20
2018-01-17T12:37:14.734Z,3.10
2018-01-17T12:39:42.004Z,3.10
2018-01-17T12:42:09.041Z,2.90
2018-01-17T12:44:35.538Z,2.90
2018-01-17T12:47:02.067Z,2.90
2018-01-17T12:49:28.719Z,3.00
2018-01-17T12:51:55.251Z,3.20
2018-01-17T12:54:21.840Z,3.40
2018-01-17T12:56:49.095Z,3.80
2018-01-17T12:59:15.619Z,3.70
2018-01-17T13:01:42.215Z,3.70
2018-01-17T13:04:09.381Z,3.90
2018-01-17T13:06:36.023Z,4.00
2018-01-17T13:09:02.670Z,4.10
2018-01-17T13:11:29.294Z,4.10
2018-01-17T13:13:55.850Z,4.10
2018-01-17T13:16:22.328Z,4.10
2018-01-17T13:18:48.960Z,3.90
2018-01-17T13:21:15.526Z,3.80
2018-01-17T13:23:42.124Z,3.80
2018-01-17T13:26:10.177Z,3.50
2018-01-17T13:28:36.759Z,3.20
2018-01-17T13:31:04.099Z,3.30
2018-01-17T13:33:30.715Z,3.30
2018-01-17T13:35:58.032Z,3.20
2018-01-17T13:38:25.321Z,3.20
2018-01-17T13:40:52.065Z,3.10
2018-01-17T13:43:19.761Z,3.30
2018-01-17T13:45:46.414Z,3.20
2018-01-17T13:48:13.686Z,3.50
2018-01-17T13:50:40.320Z,3.40
2018-01-17T13:53:08.670Z,3.30
2018-01-17T13:55:35.350Z,3.30
2018-01-17T13:58:01.906Z,3.30
2018-01-17T14:00:29.204Z,3.50
2018-01-17T14:02:55.780Z,3.40
2018-01-17T14:05:22.426Z,3.50
2018-01-17T14:07:49.001Z,3.50
2018-01-17T14:10:15.622Z,3.50
2018-01-17T14:12:43.950Z,3.40
2018-01-17T14:15:10.933Z,3.40
2018-01-17T14:17:38.787Z,3.20
2018-01-17T14:20:06.939Z,3.20
2018-01-17T14:22:33.470Z,3.20
2018-01-17T14:25:00.073Z,3.30
2018-01-17T14:27:26.555Z,3.50
2018-01-17T14:29:53.204Z,3.70
2018-01-17T14:32:21.253Z,3.80
2018-01-17T14:34:48.557Z,3.70
2018-01-17T14:37:15.053Z,3.70
2018-01-17T14:39:41.712Z,3.70
2018-01-17T14:42:13.068Z,3.60
2018-01-17T14:44:42.165Z,3.60
2018-01-17T14:47:09.233Z,3.70
2018-01-17T14:49:35.798Z,3.70
2018-01-17T14:52:03.775Z,3.80
2018-01-17T14:54:31.290Z,3.80
2018-01-17T14:56:58.566Z,3.70
2018-01-17T14:59:25.277Z,3.60
2018-01-17T15:01:51.969Z,3.60
2018-01-17T15:04:19.434Z,3.50
2018-01-17T15:06:47.555Z,3.50
2018-01-17T15:09:14.734Z,3.50
2018-01-17T15:11:41.456Z,3.50
2018-01-17T15:14:08.644Z,3.50
2018-01-17T15:16:35.363Z,3.50
2018-01-17T15:19:03.246Z,3.60
2018-01-17T15:21:29.946Z,3.60
2018-01-17T15:23:56.504Z,3.60
2018-01-17T15:26:23.092Z,3.50
2018-01-17T15:28:50.398Z,3.40
2018-01-17T15:31:16.978Z,3.40
2018-01-17T15:33:43.478Z,3.30
2018-01-17T15:36:10.644Z,3.30
2018-01-17T15:38:38.293Z,3.10
2018-01-17T15:41:05.469Z,3.00
2018-01-17T15:43:32.907Z,3.00
2018-01-17T15:46:00.236Z,3.20
2018-01-17T15:48:27.573Z,3.20
2018-01-17T15:50:54.034Z,3.20
2018-01-17T15:53:21.276Z,3.10
2018-01-17T15:55:48.584Z,3.10
2018-01-17T15:58:15.077Z,3.00
2018-01-17T16:00:41.594Z,3.10
2018-01-17T16:03:09.433Z,3.00
2018-01-17T16:05:36.874Z,3.00
2018-01-17T16:08:04.598Z,3.00
2018-01-17T16:10:31.230Z,3.00
2018-01-17T16:12:58.745Z,2.90
2018-01-17T16:15:26.222Z,2.70
2018-01-17T16:17:53.014Z,2.70
2018-01-17T16:20:19.659Z,2.70
2018-01-17T16:22:46.440Z,2.50
2018-01-17T16:25:14.308Z,2.50
2018-01-17T16:27:41.238Z,2.50
2018-01-17T16:30:09.497Z,2.50
2018-01-17T16:32:36.067Z,2.50
2018-01-17T16:35:03.220Z,2.50
2018-01-17T16:37:29.897Z,2.50
2018-01-17T16:39:57.082Z,2.60
2018-01-17T16:42:23.611Z,2.50
2018-01-17T16:44:50.229Z,2.70
2018-01-17T16:47:17.037Z,2.80
2018-01-17T16:49:44.333Z,2.70
2018-01-17T16:52:11.390Z,2.60
2018-01-17T16:54:38.704Z,2.60
2018-01-17T16:57:07.027Z,2.40
2018-01-17T16:59:33.640Z,2.60
2018-01-17T17:02:00.876Z,2.60
2018-01-17T17:04:28.390Z,2.60
2018-01-17T17:06:54.833Z,2.60
2018-01-17T17:09:21.323Z,2.50
2018-01-17T17:11:47.883Z,2.50
2018-01-17T17:14:15.232Z,2.50
2018-01-17T17:16:41.746Z,2.50
2018-01-17T17:19:08.939Z,2.50
2018-01-17T17:21:35.465Z,2.50
2018-01-17T17:24:01.929Z,2.50
2018-01-17T17:26:28.404Z,2.50
2018-01-17T17:28:55.695Z,2.70
2018-01-17T17:31:22.149Z,2.70
2018-01-17T17:33:48.687Z,2.80
2018-01-17T17:36:16.007Z,2.90
2018-01-17T17:38:42.674Z,3.00
2018-01-17T17:41:10.735Z,3.00
2018-01-17T17:43:37.286Z,2.90
2018-01-17T17:46:05.284Z,2.90
2018-01-17T17:48:31.826Z,2.80
2018-01-17T17:50:58.316Z,2.90
2018-01-17T17:53:24.846Z,2.90
2018-01-17T17:55:51.397Z,2.90
2018-01-17T17:58:17.844Z,2.80
2018-01-17T18:00:44.482Z,2.70
2018-01-17T18:03:11.957Z,2.70
2018-01-17T18:05:38.441Z,2.70
2018-01-17T18:08:05.710Z,2.70
2018-01-17T18:10:32.408Z,2.30
2018-01-17T18:12:58.944Z,2.70
2018-01-17T18:15:26.209Z,2.50
2018-01-17T18:17:52.685Z,2.40
2018-01-17T18:20:19.226Z,2.50
2018-01-17T18:22:46.460Z,2.50
2018-01-17T18:25:14.193Z,2.60
2018-01-17T18:27:40.759Z,2.50
2018-01-17T18:30:07.593Z,2.60
2018-01-17T18:32:34.201Z,2.50
2018-01-17T18:35:00.761Z,2.50
2018-01-17T18:37:27.390Z,2.50
2018-01-17T18:39:54.018Z,2.60
2018-01-17T18:42:20.573Z,2.70
2018-01-17T18:44:47.085Z,2.70
2018-01-17T18:47:14.756Z,2.80
2018-01-17T18:49:42.343Z,2.70
2018-01-17T18:52:09.374Z,2.70
2018-01-17T18:54:35.909Z,3.40
2018-01-17T18:57:02.800Z,2.70
2018-01-17T18:59:29.244Z,2.70
2018-01-17T19:01:55.851Z,2.70
2018-01-17T19:04:22.396Z,2.80
2018-01-17T19:06:49.631Z,2.90
2018-01-17T19:09:16.371Z,2.90
2018-01-17T19:11:44.328Z,2.90
2018-01-17T19:14:11.561Z,2.80
2018-01-17T19:16:38.824Z,3.00
2018-01-17T19:19:05.676Z,3.00
2018-01-17T19:21:32.158Z,3.00
2018-01-17T19:23:58.660Z,3.00
2018-01-17T19:26:25.074Z,3.00
2018-01-17T19:28:51.529Z,3.00
2018-01-17T19:31:18.338Z,3.00
2018-01-17T19:33:44.804Z,2.90
2018-01-17T19:36:11.810Z,2.90
2018-01-17T19:38:38.275Z,2.90
2018-01-17T19:41:05.918Z,2.90
2018-01-17T19:43:32.496Z,2.90
2018-01-17T19:45:59.672Z,3.00
2018-01-17T19:48:26.172Z,3.00
2018-01-17T19:50:53.426Z,3.10
2018-01-17T19:53:19.857Z,3.10
2018-01-17T19:55:46.318Z,3.10
2018-01-17T19:58:14.318Z,3.00
2018-01-17T20:00:40.918Z,3.00
2018-01-17T20:03:08.002Z,3.10
2018-01-17T20:05:34.607Z,3.00
2018-01-17T20:08:01.064Z,3.00
2018-01-17T20:10:27.634Z,3.00
2018-01-17T20:12:54.131Z,3.00
2018-01-17T20:15:20.669Z,3.10
2018-01-17T20:17:47.974Z,3.00
2018-01-17T20:20:14.961Z,3.00
2018-01-17T20:22:47.561Z,2.90
2018-01-17T20:25:15.395Z,2.90
2018-01-17T20:27:42.018Z,2.90
2018-01-17T20:30:08.918Z,2.90
2018-01-17T20:32:35.402Z,2.80
2018-01-17T20:35:01.968Z,2.90
2018-01-17T20:37:28.433Z,2.60
2018-01-17T20:39:55.214Z,2.80
2018-01-17T20:42:22.045Z,2.90
2018-01-17T20:44:48.570Z,2.90
2018-01-17T20:47:16.279Z,3.00
2018-01-17T20:49:42.786Z,3.10
2018-01-17T20:52:09.475Z,3.20
2018-01-17T20:54:36.031Z,3.30
2018-01-17T20:57:02.871Z,3.30
2018-01-17T20:59:30.075Z,3.30
2018-01-17T21:01:57.284Z,3.30
2018-01-17T21:04:23.843Z,3.20
2018-01-17T21:06:52.451Z,3.40
2018-01-17T21:09:19.004Z,3.40
2018-01-17T21:11:45.724Z,3.50
2018-01-17T21:14:12.686Z,3.50
2018-01-17T21:16:39.289Z,3.50
2018-01-17T21:19:06.309Z,3.50
2018-01-17T21:21:32.952Z,3.50
2018-01-17T21:23:59.331Z,3.50
2018-01-17T21:26:26.551Z,3.40
2018-01-17T21:28:53.574Z,3.40
2018-01-17T21:31:20.099Z,3.40
2018-01-17T21:33:46.589Z,3.30
2018-01-17T21:36:13.742Z,3.20
2018-01-17T21:38:41.062Z,3.20
2018-01-17T21:41:08.276Z,3.20
2018-01-17T21:43:42.300Z,3.10
2018-01-17T21:46:09.348Z,3.20
2018-01-17T21:48:35.898Z,3.10
2018-01-17T21:51:03.675Z,3.10
2018-01-17T21:53:30.969Z,3.10
2018-01-17T21:55:57.556Z,3.10
2018-01-17T21:58:24.038Z,3.10
2018-01-17T22:00:50.634Z,3.10
2018-01-17T22:03:17.118Z,3.10
2018-01-17T22:05:43.637Z,3.20
2018-01-17T22:08:10.718Z,3.20
2018-01-17T22:10:37.211Z,3.20
2018-01-17T22:13:04.115Z,3.20
2018-01-17T22:15:31.319Z,3.10
2018-01-17T22:17:57.778Z,3.20
2018-01-17T22:20:24.253Z,3.30
2018-01-17T22:22:51.553Z,3.20
2018-01-17T22:25:18.739Z,3.20
2018-01-17T22:27:45.283Z,3.20
2018-01-17T22:30:12.706Z,3.20
2018-01-17T22:32:39.987Z,3.20
2018-01-17T22:35:06.826Z,3.20
2018-01-17T22:37:34.109Z,3.10
2018-01-17T22:40:00.595Z,3.10
2018-01-17T22:42:27.073Z,2.70
2018-01-17T22:44:53.495Z,3.20
2018-01-17T22:47:19.954Z,3.20
2018-01-17T22:49:46.405Z,3.30
2018-01-17T22:52:13.476Z,3.40
2018-01-17T22:54:40.736Z,3.30
2018-01-17T22:57:07.697Z,3.30
2018-01-17T22:59:35.062Z,3.30
2018-01-17T23:02:01.532Z,3.30
2018-01-17T23:04:28.706Z,3.40
2018-01-17T23:06:55.206Z,3.30
2018-01-17T23:09:21.701Z,3.40
2018-01-17T23:11:48.174Z,3.40
2018-01-17T23:14:15.477Z,3.30
2018-01-17T23:16:43.019Z,3.40
2018-01-17T23:19:10.010Z,3.30
2018-01-17T23:21:36.533Z,3.40
2018-01-17T23:24:03.930Z,3.40
2018-01-17T23:26:31.142Z,3.40
2018-01-17T23:28:57.658Z,3.30
2018-01-17T23:31:24.846Z,3.30
2018-01-17T23:33:51.286Z,3.30
2018-01-17T23:36:18.085Z,3.30
2018-01-17T23:38:44.678Z,3.30
2018-01-17T23:41:12.716Z,3.40
2018-01-17T23:43:39.255Z,3.30
2018-01-17T23:46:06.329Z,3.50
2018-01-17T23:48:32.878Z,3.50
2018-01-17T23:50:59.341Z,3.60
2018-01-17T23:53:25.755Z,3.60
2018-01-17T23:55:52.206Z,3.60
2018-01-17T23:58:19.614Z,3.30
